Time;durP1;ratioP1;P1;durP2;ratioP2;P2;SDS_P1;SDS_P2;PMS_P1;PMS_P2;Temp;Humidity;BMP_temperature;BMP_pressure;BME280_temperature;BME280_humidity;BME280_pressure;Samples;Min_cycle;Max_cycle;Signal;HPM_P1;HPM_P2
2021/01/08 00:02:18;;;;;;;2.58;2.10;;;2.50;99.90;;;;;;6219694;23;20503;-58
2021/01/08 00:04:43;;;;;;;3.13;2.33;;;2.50;99.90;;;;;;6219702;23;20445;-58
2021/01/08 00:07:09;;;;;;;2.85;2.00;;;2.40;99.90;;;;;;6219480;23;20144;-58
2021/01/08 00:09:35;;;;;;;3.05;2.10;;;2.40;99.90;;;;;;6219584;23;20148;-58
2021/01/08 00:12:00;;;;;;;3.33;2.38;;;2.40;99.90;;;;;;6219497;23;20145;-58
2021/01/08 00:14:26;;;;;;;2.83;2.17;;;2.40;99.90;;;;;;6219456;23;20148;-58
2021/01/08 00:16:51;;;;;;;3.08;2.20;;;2.30;99.90;;;;;;6219879;23;20407;-58
2021/01/08 00:19:17;;;;;;;3.70;2.40;;;2.40;99.90;;;;;;6219385;23;20141;-59
2021/01/08 00:21:43;;;;;;;3.33;2.38;;;2.30;99.90;;;;;;6219187;23;20203;-58
2021/01/08 00:24:10;;;;;;;3.50;2.10;;;2.30;99.90;;;;;;6219036;23;20550;-58
2021/01/08 00:26:36;;;;;;;2.72;2.15;;;2.30;99.90;;;;;;6219050;23;20164;-58
2021/01/08 00:29:02;;;;;;;5.45;2.78;;;2.30;99.90;;;;;;6219301;23;20271;-58
2021/01/08 00:31:45;;;;;;;3.10;2.50;;;2.30;99.90;;;;;;6219468;23;20172;-58
2021/01/08 00:34:13;;;;;;;2.72;1.98;;;2.30;99.90;;;;;;6219020;23;20578;-57
2021/01/08 00:36:50;;;;;;;1.98;1.70;;;2.30;99.90;;;;;;6219365;23;20203;-58
2021/01/08 00:39:16;;;;;;;2.58;2.00;;;2.30;99.90;;;;;;6219581;23;20447;-57
2021/01/08 00:41:41;;;;;;;2.47;2.10;;;2.30;99.90;;;;;;6219269;23;20224;-58
2021/01/08 00:44:07;;;;;;;2.13;1.90;;;2.30;99.90;;;;;;6219156;23;20206;-58
2021/01/08 00:46:34;;;;;;;2.38;1.90;;;2.30;99.90;;;;;;6218700;23;20149;-58
2021/01/08 00:49:00;;;;;;;3.75;1.85;;;2.30;99.90;;;;;;6218964;23;20155;-57
2021/01/08 00:51:26;;;;;;;1.58;1.45;;;2.30;99.90;;;;;;6218870;23;20213;-58
2021/01/08 00:53:52;;;;;;;2.03;1.80;;;2.30;99.90;;;;;;6218932;23;20173;-58
2021/01/08 00:56:18;;;;;;;2.10;1.80;;;2.20;99.90;;;;;;6218777;23;20141;-58
2021/01/08 00:58:44;;;;;;;3.35;2.10;;;2.30;99.90;;;;;;6218987;23;20165;-58
2021/01/08 01:01:10;;;;;;;2.05;1.83;;;2.20;99.90;;;;;;6219117;23;20450;-58
2021/01/08 01:03:35;;;;;;;3.60;2.10;;;2.20;99.90;;;;;;6218991;23;20149;-58
2021/01/08 01:06:01;;;;;;;3.20;2.20;;;2.20;99.90;;;;;;6219137;23;20243;-58
2021/01/08 01:08:26;;;;;;;2.53;1.80;;;2.10;99.90;;;;;;6218632;23;20148;-58
2021/01/08 01:10:52;;;;;;;3.35;1.98;;;2.10;99.90;;;;;;6219007;23;20453;-58
2021/01/08 01:13:17;;;;;;;2.55;2.00;;;2.10;99.90;;;;;;6218410;23;20172;-58
2021/01/08 01:15:43;;;;;;;2.75;2.00;;;2.10;99.90;;;;;;6218904;23;20141;-58
2021/01/08 01:18:09;;;;;;;3.30;2.00;;;2.00;99.90;;;;;;6218953;23;20204;-57
2021/01/08 01:20:34;;;;;;;2.55;1.85;;;2.00;99.90;;;;;;6218528;23;20577;-58
2021/01/08 01:23:00;;;;;;;1.92;1.60;;;2.00;99.90;;;;;;6218656;23;20144;-58
2021/01/08 01:25:25;;;;;;;2.95;1.80;;;2.00;99.90;;;;;;6218495;23;20153;-58
2021/01/08 01:27:51;;;;;;;2.47;2.10;;;2.00;99.90;;;;;;6218494;23;20443;-58
2021/01/08 01:30:16;;;;;;;2.28;1.85;;;1.90;99.90;;;;;;6218420;23;20151;-58
2021/01/08 01:32:42;;;;;;;2.38;1.90;;;1.90;99.90;;;;;;6218370;23;20173;-58
2021/01/08 01:35:08;;;;;;;2.92;1.92;;;1.90;99.90;;;;;;6218545;23;20202;-58
2021/01/08 01:37:33;;;;;;;2.75;1.95;;;1.90;99.90;;;;;;6218366;23;20460;-58
2021/01/08 01:39:59;;;;;;;2.42;1.80;;;1.90;99.90;;;;;;6218271;23;20543;-58
2021/01/08 01:42:24;;;;;;;3.22;1.90;;;1.80;99.90;;;;;;6218344;23;20159;-59
2021/01/08 01:44:50;;;;;;;3.42;2.15;;;1.80;99.90;;;;;;6218174;23;20141;-58
2021/01/08 01:47:15;;;;;;;3.38;2.28;;;1.80;99.90;;;;;;6218300;23;20195;-58
2021/01/08 01:49:41;;;;;;;3.40;2.15;;;1.80;99.90;;;;;;6217091;23;20149;-59
2021/01/08 01:52:06;;;;;;;2.40;1.70;;;1.70;99.90;;;;;;6218131;23;20141;-58
2021/01/08 01:54:32;;;;;;;2.70;1.80;;;1.60;99.90;;;;;;6218455;23;20152;-58
2021/01/08 01:56:57;;;;;;;3.00;1.95;;;1.60;99.90;;;;;;6217774;23;20141;-58
2021/01/08 01:59:23;;;;;;;2.50;1.88;;;1.60;99.90;;;;;;6218589;23;20137;-58
2021/01/08 02:01:48;;;;;;;4.00;2.53;;;1.60;99.90;;;;;;6218119;23;20137;-58
2021/01/08 02:04:14;;;;;;;2.78;1.70;;;1.60;99.90;;;;;;6218309;23;20149;-58
2021/01/08 02:06:40;;;;;;;3.28;2.00;;;1.50;99.90;;;;;;6218166;23;20149;-58
2021/01/08 02:09:09;;;;;;;2.40;2.20;;;1.50;99.90;;;;;;6216924;23;20149;-58
2021/01/08 02:11:35;;;;;;;3.00;2.10;;;1.50;99.90;;;;;;6219031;23;20159;-58
2021/01/08 02:14:10;;;;;;;2.80;2.17;;;1.50;99.90;;;;;;6218135;23;20173;-58
2021/01/08 02:16:37;;;;;;;1.95;1.70;;;1.40;99.90;;;;;;6218022;23;20565;-58
2021/01/08 02:19:06;;;;;;;2.78;2.08;;;1.40;99.90;;;;;;6218116;23;20145;-58
2021/01/08 02:21:36;;;;;;;3.60;2.30;;;1.40;99.90;;;;;;6216793;23;20142;-58
2021/01/08 02:24:14;;;;;;;4.28;2.03;;;1.40;99.90;;;;;;6216660;23;20159;-58
2021/01/08 02:26:41;;;;;;;3.38;1.90;;;1.40;99.90;;;;;;6216917;23;20161;-58
2021/01/08 02:29:06;;;;;;;3.05;2.30;;;1.30;99.90;;;;;;6216671;23;20171;-58
2021/01/08 02:31:32;;;;;;;2.88;2.25;;;1.30;99.90;;;;;;6216738;23;20141;-58
2021/01/08 02:33:57;;;;;;;3.28;2.03;;;1.30;99.90;;;;;;6216514;23;20463;-58
2021/01/08 02:36:23;;;;;;;4.35;2.42;;;1.30;99.90;;;;;;6216588;23;20137;-58
2021/01/08 02:38:53;;;;;;;3.10;1.92;;;1.30;99.90;;;;;;6217745;23;20141;-58
2021/01/08 02:41:19;;;;;;;2.90;2.10;;;1.30;99.90;;;;;;6216571;23;20141;-58
2021/01/08 02:43:46;;;;;;;2.88;2.10;;;1.30;99.90;;;;;;6216638;23;20199;-58
2021/01/08 02:46:11;;;;;;;3.88;2.30;;;1.30;99.90;;;;;;6216524;23;20203;-58
2021/01/08 02:48:37;;;;;;;3.90;2.58;;;1.30;99.90;;;;;;6217716;23;20149;-58
2021/01/08 02:51:03;;;;;;;2.90;1.90;;;1.30;99.90;;;;;;6217677;23;20213;-58
2021/01/08 02:53:31;;;;;;;2.95;2.20;;;1.30;99.90;;;;;;6217845;23;20200;-58
2021/01/08 02:56:07;;;;;;;4.03;2.67;;;1.30;99.90;;;;;;6216586;23;20145;-58
2021/01/08 02:58:33;;;;;;;3.35;2.33;;;1.40;99.90;;;;;;6217478;23;20624;-58
2021/01/08 03:00:59;;;;;;;3.75;2.47;;;1.40;99.90;;;;;;6217546;23;20596;-58
2021/01/08 03:03:27;;;;;;;3.78;2.60;;;1.40;99.90;;;;;;6217940;23;20182;-58
2021/01/08 03:05:52;;;;;;;3.90;2.60;;;1.40;99.90;;;;;;6217776;23;20153;-58
2021/01/08 03:08:18;;;;;;;4.70;2.65;;;1.40;99.90;;;;;;6217576;23;20441;-58
2021/01/08 03:10:43;;;;;;;5.32;2.75;;;1.40;99.90;;;;;;6217727;23;20145;-58
2021/01/08 03:13:10;;;;;;;3.90;2.63;;;1.40;99.90;;;;;;6217431;23;20164;-58
2021/01/08 03:15:35;;;;;;;4.45;2.60;;;1.40;99.90;;;;;;6217596;23;20558;-58
2021/01/08 03:18:01;;;;;;;3.13;2.28;;;1.50;99.90;;;;;;6217851;23;20137;-58
2021/01/08 03:20:26;;;;;;;4.40;2.78;;;1.40;99.90;;;;;;6217476;23;20141;-58
2021/01/08 03:22:52;;;;;;;4.20;2.65;;;1.40;99.90;;;;;;6217767;23;20160;-58
2021/01/08 03:25:17;;;;;;;4.43;3.05;;;1.40;99.90;;;;;;6217504;23;20446;-58
2021/01/08 03:27:43;;;;;;;3.95;2.35;;;1.40;99.90;;;;;;6217410;23;20171;-58
2021/01/08 03:30:09;;;;;;;3.65;2.80;;;1.40;99.90;;;;;;6217717;23;20168;-58
2021/01/08 03:32:35;;;;;;;4.55;2.75;;;1.40;99.90;;;;;;6217350;23;20238;-58
2021/01/08 03:35:00;;;;;;;4.47;2.65;;;1.40;99.90;;;;;;6217361;23;20144;-59
2021/01/08 03:37:26;;;;;;;4.63;2.80;;;1.40;99.90;;;;;;6217416;23;20216;-58
2021/01/08 03:39:52;;;;;;;4.32;2.90;;;1.40;99.90;;;;;;6217302;23;20145;-58
2021/01/08 03:42:17;;;;;;;4.28;2.72;;;1.40;99.90;;;;;;6217428;23;20435;-58
2021/01/08 03:44:43;;;;;;;3.97;2.58;;;1.40;99.90;;;;;;6217641;23;20145;-58
2021/01/08 03:47:08;;;;;;;4.38;2.78;;;1.40;99.90;;;;;;6217249;23;20203;-58
2021/01/08 03:49:38;;;;;;;4.95;3.15;;;1.40;99.90;;;;;;6217826;23;20167;-58
2021/01/08 03:52:04;;;;;;;3.90;2.53;;;1.40;99.90;;;;;;6217466;23;20148;-59
2021/01/08 03:54:30;;;;;;;4.55;2.92;;;1.40;99.90;;;;;;6217218;23;20419;-58
2021/01/08 03:56:55;;;;;;;3.65;2.70;;;1.40;99.90;;;;;;6216095;23;20243;-58
2021/01/08 03:59:21;;;;;;;4.10;2.92;;;1.40;99.90;;;;;;6217687;23;20145;-58
2021/01/08 04:01:46;;;;;;;4.55;3.15;;;1.50;99.90;;;;;;6217361;23;20186;-58
2021/01/08 04:04:12;;;;;;;5.13;3.13;;;1.50;99.90;;;;;;6217293;23;20149;-58
2021/01/08 04:06:37;;;;;;;4.03;2.85;;;1.40;99.90;;;;;;6217213;23;20159;-57
2021/01/08 04:09:03;;;;;;;5.85;3.13;;;1.50;99.90;;;;;;6217241;23;20155;-58
2021/01/08 04:11:28;;;;;;;3.45;2.95;;;1.50;99.90;;;;;;6217339;23;20153;-58
2021/01/08 04:13:54;;;;;;;3.85;2.80;;;1.50;99.90;;;;;;6217246;23;20168;-58
2021/01/08 04:16:19;;;;;;;3.88;2.50;;;1.50;99.90;;;;;;6217386;23;20155;-58
2021/01/08 04:18:45;;;;;;;3.83;2.47;;;1.50;99.90;;;;;;6217631;23;20141;-58
2021/01/08 04:21:10;;;;;;;3.47;2.47;;;1.50;99.90;;;;;;6218335;23;20145;-58
2021/01/08 04:23:38;;;;;;;3.70;2.25;;;1.50;99.90;;;;;;6219119;23;20489;-58
2021/01/08 04:26:06;;;;;;;3.78;2.78;;;1.50;99.90;;;;;;6219120;23;20160;-58
2021/01/08 04:28:31;;;;;;;3.60;2.50;;;1.50;99.90;;;;;;6219667;23;20199;-57
2021/01/08 04:30:57;;;;;;;2.70;2.33;;;1.50;99.90;;;;;;6218983;23;20228;-59
2021/01/08 04:33:22;;;;;;;3.80;2.50;;;1.40;99.90;;;;;;6219045;23;20165;-58
2021/01/08 04:35:48;;;;;;;2.45;2.17;;;1.50;99.90;;;;;;6219442;23;20414;-58
2021/01/08 04:38:14;;;;;;;2.83;2.20;;;1.40;99.90;;;;;;6219354;23;20145;-58
2021/01/08 04:40:39;;;;;;;3.05;2.38;;;1.40;99.90;;;;;;6218977;23;20573;-58
2021/01/08 04:43:05;;;;;;;2.80;2.28;;;1.40;99.90;;;;;;6218995;23;20549;-58
2021/01/08 04:45:30;;;;;;;3.28;2.55;;;1.30;99.90;;;;;;6217821;23;20156;-58
2021/01/08 04:47:56;;;;;;;4.70;3.53;;;1.30;99.90;;;;;;6219519;23;20141;-58
2021/01/08 04:50:25;;;;;;;4.43;3.30;;;1.30;99.90;;;;;;6218082;23;20153;-58
2021/01/08 04:52:50;;;;;;;3.63;3.10;;;1.30;99.90;;;;;;6218631;23;20183;-58
2021/01/08 04:55:16;;;;;;;5.30;2.83;;;1.30;99.90;;;;;;6219179;23;20141;-58
2021/01/08 04:57:43;;;;;;;3.85;2.63;;;1.30;99.90;;;;;;6217931;23;20141;-57
2021/01/08 05:00:09;;;;;;;5.22;3.13;;;1.20;99.90;;;;;;6217594;23;20141;-58
2021/01/08 05:02:35;;;;;;;4.50;3.00;;;1.20;99.90;;;;;;6242668;23;20553;-58
2021/01/08 05:05:00;;;;;;;4.30;3.05;;;1.10;99.90;;;;;;6219200;23;20224;-57
2021/01/08 05:07:26;;;;;;;4.10;3.03;;;1.10;99.90;;;;;;6218001;23;20137;-57
2021/01/08 05:09:52;;;;;;;4.85;3.08;;;1.10;99.90;;;;;;6218802;23;20554;-57
2021/01/08 05:12:17;;;;;;;4.28;3.13;;;1.10;99.90;;;;;;6218902;23;20203;-57
2021/01/08 05:14:43;;;;;;;5.75;3.03;;;1.00;99.90;;;;;;6218693;23;20141;-58
2021/01/08 05:17:09;;;;;;;4.47;2.83;;;1.00;99.90;;;;;;6218712;23;20538;-58
2021/01/08 05:19:36;;;;;;;3.50;2.40;;;1.00;99.90;;;;;;6219255;23;20144;-58
2021/01/08 05:22:02;;;;;;;5.35;3.10;;;1.00;99.90;;;;;;6218444;23;20336;-58
2021/01/08 05:24:29;;;;;;;4.00;2.70;;;1.00;99.90;;;;;;6217549;23;20238;-58
2021/01/08 05:26:55;;;;;;;4.00;3.10;;;1.00;99.90;;;;;;6218390;23;20164;-58
2021/01/08 05:29:21;;;;;;;5.90;2.90;;;1.00;99.90;;;;;;6218874;23;20156;-58
2021/01/08 05:31:47;;;;;;;4.53;3.20;;;1.00;99.90;;;;;;6218666;23;20145;-58
2021/01/08 05:34:13;;;;;;;4.85;3.22;;;1.00;99.90;;;;;;6218450;23;20197;-58
2021/01/08 05:36:39;;;;;;;4.68;3.28;;;1.10;99.90;;;;;;6218412;23;20569;-58
2021/01/08 05:39:04;;;;;;;4.53;2.78;;;1.20;99.90;;;;;;6218064;23;20141;-58
2021/01/08 05:41:31;;;;;;;4.18;3.25;;;1.20;99.90;;;;;;6218436;23;20261;-58
2021/01/08 05:43:58;;;;;;;5.15;3.30;;;1.20;99.90;;;;;;6218190;23;20141;-58
2021/01/08 05:46:31;;;;;;;4.53;2.78;;;1.10;99.90;;;;;;6218114;23;20160;-58
2021/01/08 05:49:03;;;;;;;5.82;3.00;;;1.10;99.90;;;;;;6218497;23;20132;-58
2021/01/08 05:51:33;;;;;;;3.88;2.88;;;1.10;99.90;;;;;;6218004;23;20223;-58
2021/01/08 05:53:59;;;;;;;4.78;2.90;;;1.10;99.90;;;;;;6218344;23;20578;-58
2021/01/08 05:56:25;;;;;;;4.82;3.40;;;1.00;99.90;;;;;;6217875;23;20239;-58
2021/01/08 05:58:51;;;;;;;5.95;3.33;;;1.00;99.90;;;;;;6217848;23;20172;-58
2021/01/08 06:01:17;;;;;;;5.18;3.25;;;1.00;99.90;;;;;;6218186;23;20402;-58
2021/01/08 06:03:43;;;;;;;4.30;2.97;;;1.00;99.90;;;;;;6217881;23;20145;-58
2021/01/08 06:06:10;;;;;;;4.38;3.20;;;1.00;99.90;;;;;;6218347;23;20181;-63
2021/01/08 06:08:43;;;;;;;5.90;3.78;;;1.10;99.90;;;;;;6217899;23;20140;-58
2021/01/08 06:11:21;;;;;;;7.03;3.50;;;1.10;99.90;;;;;;6218349;23;20145;-57
2021/01/08 06:13:55;;;;;;;4.82;3.53;;;1.00;99.90;;;;;;6217734;23;20661;-58
2021/01/08 06:16:21;;;;;;;6.70;3.40;;;1.00;99.90;;;;;;6218221;23;20203;-58
2021/01/08 06:18:51;;;;;;;4.55;2.80;;;1.10;99.90;;;;;;6218085;23;20149;-58
2021/01/08 06:21:17;;;;;;;5.05;3.13;;;1.00;99.90;;;;;;6217824;23;20137;-58
2021/01/08 06:23:49;;;;;;;4.03;2.97;;;1.10;99.90;;;;;;6218064;23;20453;-58
2021/01/08 06:26:16;;;;;;;5.97;3.13;;;1.10;99.90;;;;;;6217849;23;20161;-58
2021/01/08 06:28:44;;;;;;;5.68;3.00;;;1.10;99.90;;;;;;6217742;23;20195;-58
2021/01/08 06:31:14;;;;;;;4.65;2.92;;;1.10;99.90;;;;;;6218203;23;20418;-58
2021/01/08 06:33:40;;;;;;;4.80;3.47;;;1.00;99.90;;;;;;6217489;23;20148;-57
2021/01/08 06:36:18;;;;;;;4.20;2.80;;;1.00;99.90;;;;;;6216513;23;20137;-58
2021/01/08 06:38:49;;;;;;;5.47;3.35;;;1.00;99.90;;;;;;6219548;23;20141;-58
2021/01/08 06:41:16;;;;;;;5.07;3.28;;;1.00;99.90;;;;;;6218047;23;20153;-58
2021/01/08 06:43:47;;;;;;;6.05;3.20;;;1.00;99.90;;;;;;6217681;23;20145;-58
2021/01/08 06:46:23;;;;;;;4.82;2.85;;;0.90;99.90;;;;;;6217793;23;20137;-58
2021/01/08 06:48:53;;;;;;;6.38;3.60;;;1.00;99.90;;;;;;6216554;23;20549;-58
2021/01/08 06:51:28;;;;;;;4.47;3.17;;;0.90;99.90;;;;;;6217672;23;20227;-57
2021/01/08 06:54:10;;;;;;;7.25;3.03;;;0.90;99.90;;;;;;6217506;23;20466;-57
2021/01/08 06:56:43;;;;;;;7.57;3.72;;;0.90;99.90;;;;;;6217992;23;20133;-56
2021/01/08 06:59:14;;;;;;;4.80;3.38;;;0.90;99.90;;;;;;6217524;23;20141;-57
2021/01/08 07:02:10;;;;;;;5.88;3.60;;;0.90;99.90;;;;;;6216454;23;20202;-57
2021/01/08 07:04:37;;;;;;;5.70;2.95;;;0.90;99.90;;;;;;6217878;23;20514;-57
2021/01/08 07:07:04;;;;;;;5.32;3.17;;;0.90;99.90;;;;;;6218222;23;20546;-57
2021/01/08 07:09:36;;;;;;;5.35;3.55;;;0.90;99.90;;;;;;6217541;23;20149;-63
2021/01/08 07:12:07;;;;;;;5.20;3.28;;;0.90;99.90;;;;;;6217451;23;20145;-63
2021/01/08 07:14:35;;;;;;;5.32;3.38;;;0.90;99.90;;;;;;6217421;23;20153;-57
2021/01/08 07:17:04;;;;;;;5.05;3.05;;;0.90;99.90;;;;;;6217743;23;20419;-56
2021/01/08 07:19:30;;;;;;;4.03;3.00;;;0.90;99.90;;;;;;6217314;23;20171;-57
2021/01/08 07:21:59;;;;;;;4.25;2.80;;;0.90;99.90;;;;;;6217541;23;20177;-58
2021/01/08 07:24:31;;;;;;;4.28;3.03;;;0.90;99.90;;;;;;6217332;23;20419;-56
2021/01/08 07:27:23;;;;;;;4.60;2.95;;;0.90;99.90;;;;;;6217394;23;20175;-58
2021/01/08 07:29:53;;;;;;;4.90;3.40;;;0.90;99.90;;;;;;6217827;23;20175;-58
2021/01/08 07:32:38;;;;;;;5.43;3.70;;;0.90;99.90;;;;;;6217410;23;20149;-57
2021/01/08 07:35:26;;;;;;;4.68;3.40;;;0.90;99.90;;;;;;6217774;23;20137;-57
2021/01/08 07:38:04;;;;;;;6.30;3.65;;;0.90;99.90;;;;;;6217695;23;20151;-56
2021/01/08 07:40:36;;;;;;;7.13;3.97;;;0.90;99.90;;;;;;6217775;23;20149;-58
2021/01/08 07:43:02;;;;;;;6.65;3.92;;;0.90;99.90;;;;;;6217345;23;20136;-57
2021/01/08 07:45:59;;;;;;;5.85;3.50;;;0.90;99.90;;;;;;6217554;23;20210;-58
2021/01/08 07:48:27;;;;;;;5.72;3.88;;;0.90;99.90;;;;;;6217463;23;20227;-57
2021/01/08 07:51:03;;;;;;;8.35;5.00;;;0.90;99.90;;;;;;6218558;23;20179;-57
2021/01/08 07:53:41;;;;;;;7.05;3.85;;;0.90;99.90;;;;;;6217359;23;20161;-57
2021/01/08 07:56:18;;;;;;;6.95;4.20;;;0.90;99.90;;;;;;6218581;23;20624;-58
2021/01/08 07:58:58;;;;;;;7.18;4.03;;;1.00;99.90;;;;;;6219141;23;20430;-58
2021/01/08 08:01:23;;;;;;;6.32;3.72;;;1.00;99.90;;;;;;6219592;23;20136;-57
2021/01/08 08:04:03;;;;;;;7.95;4.00;;;1.00;99.90;;;;;;6219243;23;20145;-57
2021/01/08 08:06:33;;;;;;;5.88;3.67;;;1.10;99.90;;;;;;6220488;23;20137;-58
2021/01/08 08:09:00;;;;;;;6.57;3.60;;;1.10;99.90;;;;;;6219458;23;20146;-57
2021/01/08 08:11:32;;;;;;;5.10;3.30;;;1.20;99.90;;;;;;6219074;23;20628;-57
2021/01/08 08:13:58;;;;;;;3.97;2.88;;;1.20;99.90;;;;;;6219201;23;20168;-57
2021/01/08 08:16:37;;;;;;;4.15;3.20;;;1.30;99.90;;;;;;6219365;23;20141;-58
2021/01/08 08:19:07;;;;;;;4.03;3.03;;;1.30;99.90;;;;;;6219149;23;20145;-58
2021/01/08 08:21:33;;;;;;;3.53;2.50;;;1.40;99.90;;;;;;6219453;23;20133;-57
2021/01/08 08:24:04;;;;;;;3.47;2.92;;;1.40;99.90;;;;;;6217999;23;20275;-58
2021/01/08 08:26:31;;;;;;;4.43;2.72;;;1.50;99.90;;;;;;6218964;23;20168;-58
2021/01/08 08:29:13;;;;;;;5.43;2.80;;;1.50;99.90;;;;;;6218744;23;20152;-58
2021/01/08 08:31:41;;;;;;;5.00;3.33;;;1.50;99.90;;;;;;6217583;23;20376;-59
2021/01/08 08:34:09;;;;;;;4.63;3.35;;;1.50;99.90;;;;;;6218958;23;20211;-59
2021/01/08 08:36:35;;;;;;;4.07;2.92;;;1.50;99.90;;;;;;6218571;23;20623;-58
2021/01/08 08:39:06;;;;;;;4.05;3.00;;;1.50;99.90;;;;;;6216973;23;20141;-58
2021/01/08 08:41:33;;;;;;;5.15;3.40;;;1.50;99.90;;;;;;6216910;23;20212;-57
2021/01/08 08:44:00;;;;;;;5.60;3.25;;;1.50;99.90;;;;;;6218022;23;20156;-57
2021/01/08 08:46:39;;;;;;;5.20;3.15;;;1.60;99.90;;;;;;6218290;23;20195;-57
2021/01/08 08:49:06;;;;;;;4.68;3.10;;;1.60;99.90;;;;;;6218236;23;20140;-57
2021/01/08 08:51:31;;;;;;;4.18;3.15;;;1.60;99.90;;;;;;6217870;23;20180;-57
2021/01/08 08:53:58;;;;;;;4.95;3.00;;;1.60;99.90;;;;;;6218605;23;20570;-58
2021/01/08 08:56:23;;;;;;;6.10;3.20;;;1.60;99.90;;;;;;6218511;23;20140;-59
2021/01/08 08:58:49;;;;;;;5.60;3.45;;;1.60;99.90;;;;;;6218301;23;20442;-59
2021/01/08 09:01:14;;;;;;;4.80;3.22;;;1.50;99.90;;;;;;6218721;23;20152;-59
2021/01/08 09:03:40;;;;;;;4.53;3.28;;;1.50;99.90;;;;;;6218499;23;20145;-59
2021/01/08 09:06:09;;;;;;;5.18;3.78;;;1.40;99.90;;;;;;6218612;23;20148;-59
2021/01/08 09:08:38;;;;;;;5.55;3.30;;;1.40;99.90;;;;;;6217002;23;20160;-59
2021/01/08 09:11:28;;;;;;;3.72;2.70;;;1.40;99.90;;;;;;6218619;23;20203;-59
2021/01/08 09:13:59;;;;;;;4.30;3.22;;;1.50;99.90;;;;;;6218122;23;20164;-59
2021/01/08 09:16:42;;;;;;;6.38;3.80;;;1.50;99.90;;;;;;6217875;23;20569;-58
2021/01/08 09:19:10;;;;;;;6.55;3.58;;;1.50;99.90;;;;;;6217309;23;20216;-59
2021/01/08 09:21:48;;;;;;;5.50;4.00;;;1.50;99.90;;;;;;6218463;23;20562;-59
2021/01/08 09:24:19;;;;;;;7.60;4.70;;;1.60;99.90;;;;;;6216544;23;20141;-58
2021/01/08 09:26:44;;;;;;;5.70;3.85;;;1.50;99.90;;;;;;6218194;23;20167;-59
2021/01/08 09:29:10;;;;;;;6.55;3.90;;;1.50;99.90;;;;;;6218426;23;20153;-58
2021/01/08 09:31:40;;;;;;;5.43;3.33;;;1.50;99.90;;;;;;6217296;23;20149;-59
2021/01/08 09:34:06;;;;;;;4.80;3.58;;;1.50;99.90;;;;;;6215952;23;20195;-58
2021/01/08 09:36:36;;;;;;;5.28;3.63;;;1.50;99.90;;;;;;6215993;23;20573;-58
2021/01/08 09:39:08;;;;;;;6.30;4.18;;;1.60;99.90;;;;;;6215933;23;20163;-59
2021/01/08 09:41:34;;;;;;;5.68;4.13;;;1.60;99.90;;;;;;6216077;23;20145;-59
2021/01/08 09:44:01;;;;;;;5.97;4.10;;;1.60;99.90;;;;;;6216547;23;20229;-59
2021/01/08 09:46:28;;;;;;;6.30;3.92;;;1.70;99.90;;;;;;6216323;23;20149;-58
2021/01/08 09:48:54;;;;;;;5.43;3.92;;;1.80;99.90;;;;;;6217267;23;20202;-59
2021/01/08 09:51:19;;;;;;;5.28;3.67;;;1.90;99.90;;;;;;6218325;23;20234;-59
2021/01/08 09:53:55;;;;;;;4.57;3.38;;;1.90;99.90;;;;;;6216965;23;20176;-59
2021/01/08 09:56:21;;;;;;;4.80;3.20;;;1.90;99.90;;;;;;6218110;23;20141;-59
2021/01/08 09:58:46;;;;;;;4.28;3.20;;;1.90;99.90;;;;;;6218221;23;20216;-58
2021/01/08 10:01:15;;;;;;;3.83;2.95;;;1.90;99.90;;;;;;6218353;23;20597;-58
2021/01/08 10:03:48;;;;;;;5.97;3.55;;;2.00;99.90;;;;;;6216330;23;20214;-58
2021/01/08 10:06:14;;;;;;;4.70;3.55;;;2.10;99.90;;;;;;6217898;23;20617;-59
2021/01/08 10:08:40;;;;;;;4.35;3.58;;;2.20;99.90;;;;;;6217631;23;20180;-58
2021/01/08 10:11:06;;;;;;;4.45;3.45;;;2.30;99.90;;;;;;6217823;23;20159;-57
2021/01/08 10:13:32;;;;;;;4.95;3.25;;;2.30;99.90;;;;;;6217653;23;20174;-58
2021/01/08 10:16:05;;;;;;;4.20;3.03;;;2.30;99.90;;;;;;6218160;23;20156;-57
2021/01/08 10:18:36;;;;;;;4.25;3.17;;;2.20;99.90;;;;;;6217540;23;20468;-58
2021/01/08 10:21:04;;;;;;;3.95;2.92;;;2.20;99.90;;;;;;6217690;23;20149;-58
2021/01/08 10:23:29;;;;;;;4.53;3.60;;;2.20;99.90;;;;;;6216307;23;20453;-59
2021/01/08 10:26:18;;;;;;;3.55;3.10;;;2.30;99.90;;;;;;6217083;23;20192;-58
2021/01/08 10:28:52;;;;;;;4.22;3.10;;;2.40;99.90;;;;;;6218025;23;20214;-58
2021/01/08 10:31:18;;;;;;;4.22;2.83;;;2.40;99.90;;;;;;6217603;23;20172;-58
2021/01/08 10:33:44;;;;;;;7.38;3.42;;;2.40;99.90;;;;;;6217848;23;20520;-58
2021/01/08 10:36:10;;;;;;;4.05;2.92;;;2.40;99.90;;;;;;6241641;23;20172;-58
2021/01/08 10:38:35;;;;;;;5.30;2.70;;;2.40;99.90;;;;;;6217977;23;20665;-59
2021/01/08 10:41:01;;;;;;;3.53;2.53;;;2.40;99.90;;;;;;6217475;23;20564;-58
2021/01/08 10:43:28;;;;;;;6.10;2.97;;;2.40;99.90;;;;;;6218210;23;20448;-58
2021/01/08 10:45:54;;;;;;;5.05;3.38;;;2.40;99.90;;;;;;6217866;23;20505;-58
2021/01/08 10:48:19;;;;;;;4.95;3.03;;;2.50;99.90;;;;;;6217105;23;20250;-58
2021/01/08 10:50:47;;;;;;;4.35;3.05;;;2.40;99.90;;;;;;6216803;23;20279;-58
2021/01/08 10:53:12;;;;;;;4.43;3.22;;;2.30;99.90;;;;;;6217348;23;20474;-58
2021/01/08 10:55:38;;;;;;;4.25;3.28;;;2.30;99.90;;;;;;6216922;23;20231;-58
2021/01/08 10:58:03;;;;;;;4.57;3.40;;;2.20;99.90;;;;;;6217843;23;20141;-58
2021/01/08 11:00:29;;;;;;;5.38;3.67;;;2.20;99.90;;;;;;6216896;23;20168;-58
2021/01/08 11:02:54;;;;;;;6.00;4.07;;;2.20;99.90;;;;;;6217479;23;20558;-58
2021/01/08 11:05:20;;;;;;;5.88;4.22;;;2.20;99.90;;;;;;6217106;23;20145;-58
2021/01/08 11:07:46;;;;;;;5.85;3.80;;;2.20;99.90;;;;;;6217421;23;20179;-58
2021/01/08 11:10:12;;;;;;;5.38;3.75;;;2.20;99.90;;;;;;6216942;23;20198;-58
2021/01/08 11:12:37;;;;;;;4.85;3.60;;;2.20;99.90;;;;;;6217250;23;20173;-58
2021/01/08 11:37:03;;;;;;;5.35;3.70;;;2.20;99.90;;;;;;6293806;22;20604;-61
2021/01/08 11:54:01;;;;;;;6.97;3.90;;;2.10;99.90;;;;;;6267996;22;20207;31
2021/01/08 11:58:52;;;;;;;7.40;4.13;;;1.90;99.90;;;;;;6235235;22;20434;31
2021/01/08 12:03:43;;;;;;;5.47;4.15;;;2.00;99.90;;;;;;6216032;22;404827;31
2021/01/08 12:10:59;;;;;;;7.43;4.13;;;2.30;99.90;;;;;;6263855;22;20181;31
2021/01/08 12:26:27;;;;;;;4.57;3.53;;;2.90;99.90;;;;;;6202850;22;20199;31
2021/01/08 12:43:27;;;;;;;5.45;4.05;;;2.90;99.90;;;;;;6187133;22;396888;31
2021/01/08 13:32:05;;;;;;;3.88;2.92;;;2.70;99.90;;;;;;6190361;22;394350;31
2021/01/08 13:34:30;;;;;;;4.32;3.20;;;2.70;99.90;;;;;;6200118;22;20219;31
2021/01/08 13:47:29;;;;;;;4.30;2.58;;;2.60;99.90;;;;;;6320551;22;21384;-59
2021/01/08 14:07:09;;;;;;;4.57;2.88;;;2.70;99.90;;;;;;6247672;22;388447;31
2021/01/08 14:45:59;;;;;;;4.25;3.10;;;2.20;99.90;;;;;;6264600;22;20210;31
2021/01/08 15:13:31;;;;;;;4.68;3.22;;;1.60;99.90;;;;;;6169349;22;20554;31
2021/01/08 15:15:56;;;;;;;4.50;3.50;;;1.50;99.90;;;;;;6094587;23;20193;31
2021/01/08 15:18:30;;;;;;;5.90;4.03;;;1.50;99.90;;;;;;6123557;23;395199;31
2021/01/08 15:33:02;;;;;;;6.43;4.50;;;1.60;99.90;;;;;;6123039;23;388658;31
2021/01/08 15:48:14;;;;;;;7.22;5.40;;;1.80;99.90;;;;;;6209890;22;20543;31
2021/01/08 16:02:48;;;;;;;7.22;4.53;;;1.80;99.90;;;;;;6207330;22;21940;31
2021/01/08 16:25:02;;;;;;;6.95;4.45;;;1.70;99.90;;;;;;6257572;22;20219;31
2021/01/08 16:27:33;;;;;;;8.25;5.05;;;1.60;99.90;;;;;;6240805;22;388838;31
2021/01/08 16:45:32;;;;;;;7.88;5.15;;;1.00;99.90;;;;;;6247320;22;20198;-55
2021/01/08 18:11:02;;;;;;;10.27;8.00;;;0.40;99.90;;;;;;6137659;23;23263;-56
2021/01/08 18:17:26;;;;;;;11.88;8.10;;;0.50;99.90;;;;;;6226797;22;20302;-56
2021/01/08 18:22:23;;;;;;;10.25;6.80;;;0.60;99.90;;;;;;6227827;22;20204;31
2021/01/08 18:29:40;;;;;;;8.70;6.25;;;0.80;99.90;;;;;;6227502;22;20195;31
2021/01/08 18:36:56;;;;;;;8.27;6.60;;;0.90;99.90;;;;;;6226131;22;20830;31
2021/01/08 18:41:47;;;;;;;9.77;6.10;;;0.90;99.90;;;;;;6225762;22;20436;31
2021/01/08 19:18:37;;;;;;;5.95;4.28;;;1.00;99.90;;;;;;6253446;22;20244;31
2021/01/08 20:16:45;;;;;;;4.97;2.83;;;1.50;99.90;;;;;;6249014;22;20195;-55
2021/01/08 20:19:10;;;;;;;3.45;2.58;;;1.50;99.90;;;;;;6249181;22;20151;-56
2021/01/08 20:21:39;;;;;;;3.80;2.55;;;1.60;99.90;;;;;;6249000;22;20148;-55
2021/01/08 20:24:05;;;;;;;4.03;2.38;;;1.60;99.90;;;;;;6249117;22;20148;-56
2021/01/08 20:26:36;;;;;;;3.85;2.45;;;1.70;99.90;;;;;;6248609;22;20144;-56
2021/01/08 20:29:02;;;;;;;3.65;2.50;;;1.70;99.90;;;;;;6249095;22;20439;-55
2021/01/08 20:31:28;;;;;;;3.83;2.78;;;1.80;99.90;;;;;;6248849;23;20151;-55
2021/01/08 20:33:53;;;;;;;4.43;3.20;;;1.90;99.90;;;;;;6248703;22;20168;-56
2021/01/08 20:36:19;;;;;;;4.20;3.08;;;1.90;99.90;;;;;;6248424;22;20144;-55
2021/01/08 20:38:45;;;;;;;5.35;3.00;;;1.90;99.90;;;;;;6248968;22;20194;-55
2021/01/08 20:41:10;;;;;;;4.20;3.10;;;2.00;99.90;;;;;;6248807;22;20137;-55
2021/01/08 20:43:36;;;;;;;4.22;3.00;;;2.00;99.90;;;;;;6248872;22;20149;-55
2021/01/08 20:46:01;;;;;;;3.75;3.33;;;2.00;99.90;;;;;;6248629;22;20148;-56
2021/01/08 20:48:27;;;;;;;4.50;3.55;;;2.00;99.90;;;;;;6248457;22;20175;-56
2021/01/08 20:50:52;;;;;;;5.40;3.83;;;2.00;99.90;;;;;;6248793;22;20144;-56
2021/01/08 20:53:18;;;;;;;4.85;3.28;;;1.90;99.90;;;;;;6249921;22;20235;-55
2021/01/08 20:55:44;;;;;;;6.47;4.13;;;1.90;99.90;;;;;;6248751;22;20132;-55